createdAt,value
2018-12-22T00:03:03.926Z,100138.95
2018-12-22T00:07:07.861Z,100133.69
2018-12-22T00:11:11.903Z,100104.48
2018-12-22T00:15:15.886Z,100121.77
2018-12-22T00:19:19.822Z,100118.98
2018-12-22T00:23:23.858Z,100126.24
2018-12-22T00:27:27.855Z,100120.50
2018-12-22T00:31:31.928Z,100123.34
2018-12-22T00:35:35.872Z,100127.41
2018-12-22T00:39:39.827Z,100119.39
2018-12-22T00:43:43.787Z,100127.67
2018-12-22T00:47:47.718Z,100124.15
2018-12-22T00:51:51.700Z,100123.24
2018-12-22T00:55:55.780Z,100118.97
2018-12-22T00:59:59.674Z,100115.38
2018-12-22T01:04:03.850Z,100115.02
2018-12-22T01:08:07.832Z,100115.34
2018-12-22T01:12:12.040Z,100120.50
2018-12-22T01:16:15.974Z,100113.34
2018-12-22T01:20:19.983Z,100113.49
2018-12-22T01:25:26.643Z,100090.61
2018-12-22T01:29:30.710Z,100096.83
2018-12-22T01:33:34.931Z,100107.70
2018-12-22T01:37:38.967Z,100094.45
2018-12-22T01:41:42.945Z,100105.27
2018-12-22T01:45:46.842Z,100108.53
2018-12-22T01:49:50.795Z,100098.57
2018-12-22T01:53:54.859Z,100098.57
2018-12-22T01:57:58.810Z,100103.73
2018-12-22T02:02:02.711Z,100076.10
2018-12-22T02:06:06.715Z,100102.73
2018-12-22T02:10:10.768Z,100086.55
2018-12-22T02:14:14.823Z,100075.16
2018-12-22T02:18:19.006Z,100068.83
2018-12-22T02:22:22.936Z,100075.52
2018-12-22T02:26:26.880Z,100072.29
2018-12-22T02:30:30.895Z,100061.45
2018-12-22T02:34:35.063Z,100052.80
2018-12-22T02:38:39.070Z,100055.17
2018-12-22T02:42:43.083Z,100066.95
2018-12-22T02:46:47.203Z,100036.87
2018-12-22T02:50:51.194Z,100027.46
2018-12-22T02:54:55.144Z,100020.39
2018-12-22T02:59:05.965Z,100016.36
2018-12-22T03:03:04.990Z,100015.78
2018-12-22T03:07:08.909Z,100001.89
2018-12-22T03:11:12.800Z,100021.25
2018-12-22T03:15:16.734Z,100004.48
2018-12-22T03:19:20.711Z,100009.30
2018-12-22T03:23:24.709Z,100027.30
2018-12-22T03:27:28.717Z,100029.68
2018-12-22T03:31:32.661Z,100033.87
2018-12-22T03:35:36.604Z,100001.27
2018-12-22T03:39:40.670Z,100012.88
2018-12-22T03:43:44.659Z,100006.66
2018-12-22T03:47:48.671Z,100017.83
2018-12-22T03:51:52.721Z,99994.24
2018-12-22T03:55:56.749Z,100003.45
2018-12-22T04:00:00.769Z,99994.88
2018-12-22T04:04:05.032Z,100001.16
2018-12-22T04:08:08.993Z,99982.99
2018-12-22T04:12:12.931Z,99996.22
2018-12-22T04:16:16.860Z,100007.64
2018-12-22T04:20:20.791Z,100014.33
2018-12-22T04:24:24.719Z,100006.80
2018-12-22T04:28:28.623Z,100026.81
2018-12-22T04:32:32.565Z,100035.45
2018-12-22T04:36:36.514Z,100046.06
2018-12-22T04:40:40.497Z,100050.95
2018-12-22T04:44:44.427Z,100039.64
2018-12-22T04:48:48.364Z,100042.00
2018-12-22T04:52:52.375Z,100038.89
2018-12-22T04:56:56.326Z,100064.34
2018-12-22T05:01:00.368Z,100049.50
2018-12-22T05:05:04.518Z,100062.72
2018-12-22T05:09:08.541Z,100062.52
2018-12-22T05:13:12.541Z,100072.64
2018-12-22T05:17:16.469Z,100071.92
2018-12-22T05:21:20.409Z,100074.81
2018-12-22T05:25:24.339Z,100085.78
2018-12-22T05:29:28.264Z,100083.31
2018-12-22T05:33:32.206Z,100086.61
2018-12-22T05:37:36.161Z,100100.61
2018-12-22T05:41:40.191Z,100086.34
2018-12-22T05:45:44.133Z,100092.91
2018-12-22T05:49:48.087Z,100106.57
2018-12-22T05:53:52.062Z,100104.69
2018-12-22T05:57:56.032Z,100119.56
2018-12-22T06:02:00.160Z,100158.63
2018-12-22T06:06:04.180Z,100154.70
2018-12-22T06:10:08.373Z,100144.84
2018-12-22T06:14:12.291Z,100167.52
2018-12-22T06:18:16.373Z,100176.09
2018-12-22T06:22:20.339Z,100202.80
2018-12-22T06:26:24.271Z,100193.59
2018-12-22T06:30:34.783Z,100209.68
2018-12-22T06:34:38.843Z,100209.14
2018-12-22T06:38:42.787Z,100225.32
2018-12-22T06:42:46.715Z,100232.08
2018-12-22T06:46:50.647Z,100228.13
2018-12-22T06:50:54.575Z,100246.96
2018-12-22T06:54:58.491Z,100258.71
2018-12-22T06:59:02.419Z,100258.65
2018-12-22T07:03:06.474Z,100270.87
2018-12-22T07:07:10.372Z,100276.33
2018-12-22T07:11:14.279Z,100288.20
2018-12-22T07:15:18.210Z,100303.36
2018-12-22T07:19:22.227Z,100312.67
2018-12-22T07:23:26.251Z,100309.66
2018-12-22T07:27:31.224Z,100323.03
2018-12-22T07:31:35.116Z,100338.66
2018-12-22T07:35:39.067Z,100347.38
2018-12-22T07:39:43.007Z,100360.46
2018-12-22T07:43:46.942Z,100385.30
2018-12-22T07:47:50.875Z,100398.28
2018-12-22T07:51:54.841Z,100410.80
2018-12-22T07:55:58.771Z,100405.02
2018-12-22T08:00:02.826Z,100422.51
2018-12-22T08:04:06.907Z,100420.20
2018-12-22T08:08:10.823Z,100432.61
2018-12-22T08:12:14.812Z,100435.72
2018-12-22T08:16:18.783Z,100448.84
2018-12-22T08:20:22.878Z,100462.53
2018-12-22T08:24:27.034Z,100485.77
2018-12-22T08:28:30.987Z,100490.64
2018-12-22T08:32:36.159Z,100484.33
2018-12-22T08:36:40.118Z,100501.35
2018-12-22T08:40:44.122Z,100511.80
2018-12-22T08:44:48.145Z,100516.41
2018-12-22T08:48:52.197Z,100512.65
2018-12-22T08:52:56.119Z,100541.31
2018-12-22T08:56:59.999Z,100553.17
2018-12-22T09:01:04.042Z,100550.62
2018-12-22T09:05:08.220Z,100555.16
2018-12-22T09:09:12.190Z,100580.72
2018-12-22T09:13:20.770Z,100583.76
2018-12-22T09:17:22.034Z,100577.75
2018-12-22T09:21:26.022Z,100589.28
2018-12-22T09:25:30.020Z,100588.28
2018-12-22T09:29:33.977Z,100594.26
2018-12-22T09:33:37.923Z,100603.08
2018-12-22T09:37:41.849Z,100612.95
2018-12-22T09:41:45.826Z,100617.81
2018-12-22T09:45:49.819Z,100629.72
2018-12-22T09:49:53.898Z,100630.08
2018-12-22T09:53:57.928Z,100643.51
2018-12-22T09:58:01.877Z,100659.98
2018-12-22T10:02:05.784Z,100651.40
2018-12-22T10:06:09.702Z,100671.30
2018-12-22T10:10:17.447Z,100665.52
2018-12-22T10:14:21.548Z,100662.99
2018-12-22T10:18:25.498Z,100677.96
2018-12-22T10:22:29.403Z,100682.28
2018-12-22T10:26:33.439Z,100684.06
2018-12-22T10:30:37.346Z,100679.64
2018-12-22T10:34:41.379Z,100686.93
2018-12-22T10:38:45.288Z,100687.92
2018-12-22T10:42:49.190Z,100680.48
2018-12-22T10:46:53.150Z,100695.05
2018-12-22T10:50:57.106Z,100681.47
2018-12-22T10:55:01.182Z,100690.35
2018-12-22T10:59:05.315Z,100697.17
2018-12-22T11:03:09.478Z,100683.86
2018-12-22T11:07:14.508Z,100714.00
2018-12-22T11:11:18.488Z,100710.88
2018-12-22T11:15:22.515Z,100721.14
2018-12-22T11:19:26.476Z,100726.36
2018-12-22T11:23:30.440Z,100742.37
2018-12-22T11:27:34.433Z,100722.37
2018-12-22T11:31:38.420Z,100732.47
2018-12-22T11:35:42.379Z,100731.20
2018-12-22T11:39:46.326Z,100738.48
2018-12-22T11:43:50.266Z,100753.19
2018-12-22T11:49:14.798Z,100783.08
2018-12-22T11:53:18.746Z,100754.23
2018-12-22T11:57:22.710Z,100761.02
2018-12-22T12:01:26.741Z,100761.77
2018-12-22T12:05:30.764Z,100771.06
2018-12-22T12:09:34.784Z,100787.75
2018-12-22T12:13:38.762Z,100775.59
2018-12-22T12:17:55.148Z,100780.48
2018-12-22T12:21:59.274Z,100780.44
2018-12-22T12:26:03.247Z,100792.66
2018-12-22T12:30:09.914Z,100783.69
2018-12-22T12:34:13.882Z,100787.19
2018-12-22T12:38:17.816Z,100794.39
2018-12-22T12:42:21.843Z,100791.89
2018-12-22T12:46:45.543Z,100795.95
2018-12-22T12:50:49.622Z,100803.00
2018-12-22T12:54:53.627Z,100792.01
2018-12-22T12:58:57.515Z,100775.73
2018-12-22T13:03:01.460Z,100790.30
2018-12-22T13:07:05.454Z,100799.27
2018-12-22T13:11:09.537Z,100812.09
2018-12-22T13:15:13.750Z,100800.59
2018-12-22T13:19:17.855Z,100795.11
2018-12-22T13:23:21.910Z,100824.95
2018-12-22T13:27:25.941Z,100822.50
2018-12-22T13:31:30.061Z,100859.12
2018-12-22T13:35:35.075Z,100834.00
2018-12-22T13:39:39.055Z,100837.61
2018-12-22T13:43:42.947Z,100838.16
2018-12-22T13:47:46.950Z,100877.28
2018-12-22T13:51:51.114Z,100872.38
2018-12-22T13:55:55.180Z,100871.89
2018-12-22T13:59:59.127Z,100878.34
2018-12-22T14:04:03.186Z,100891.16
2018-12-22T14:08:07.218Z,100882.23
2018-12-22T14:12:11.194Z,100887.92
2018-12-22T14:16:24.684Z,100900.19
2018-12-22T14:20:29.886Z,100914.31
2018-12-22T14:24:38.107Z,100919.03
2018-12-22T14:28:42.086Z,100915.36
2018-12-22T14:32:46.071Z,100911.14
2018-12-22T14:36:50.133Z,100918.50
2018-12-22T14:40:55.283Z,100938.21
2018-12-22T14:44:59.316Z,100939.83
2018-12-22T14:49:03.339Z,100953.73
2018-12-22T14:53:07.295Z,100945.17
2018-12-22T14:57:12.041Z,100959.02
2018-12-22T15:01:16.220Z,100962.87
2018-12-22T15:05:20.368Z,100965.22
2018-12-22T15:09:24.258Z,100982.98
2018-12-22T15:13:28.199Z,100994.06
2018-12-22T15:17:32.291Z,100990.80
2018-12-22T15:21:36.344Z,100994.53
2018-12-22T15:25:40.318Z,101001.94
2018-12-22T15:29:44.279Z,101006.11
2018-12-22T15:33:48.243Z,101017.04
2018-12-22T15:37:52.310Z,101008.22
2018-12-22T15:41:56.300Z,101018.24
2018-12-22T15:46:00.351Z,101027.00
2018-12-22T15:50:05.487Z,101029.64
2018-12-22T15:54:09.491Z,101041.27
2018-12-22T15:58:13.526Z,101046.06
2018-12-22T16:02:18.832Z,101049.31
2018-12-22T16:06:23.986Z,101041.42
2018-12-22T16:10:34.331Z,101055.77
2018-12-22T16:14:38.263Z,101052.96
2018-12-22T16:18:42.234Z,101054.51
2018-12-22T16:22:50.066Z,101052.54
2018-12-22T16:26:54.050Z,101063.23
2018-12-22T16:30:58.927Z,101054.25
2018-12-22T16:35:02.923Z,101058.70
2018-12-22T16:39:08.295Z,101065.98
2018-12-22T16:43:13.882Z,101070.67
2018-12-22T16:47:17.878Z,101073.11
2018-12-22T16:51:22.015Z,101069.23
2018-12-22T16:55:26.378Z,101085.88
2018-12-22T16:59:32.590Z,101081.84
2018-12-22T17:03:36.617Z,101096.95
2018-12-22T17:07:40.683Z,101104.86
2018-12-22T17:11:44.625Z,101097.30
2018-12-22T17:15:52.307Z,101108.22
2018-12-22T17:19:56.393Z,101125.95
2018-12-22T17:24:23.000Z,101133.03
2018-12-22T17:28:28.505Z,101143.50
2018-12-22T17:32:32.687Z,101141.58
2018-12-22T17:36:36.790Z,101155.10
2018-12-22T17:40:40.811Z,101155.25
2018-12-22T17:44:44.803Z,101152.26
2018-12-22T17:48:48.874Z,101162.96
2018-12-22T17:52:52.850Z,101182.06
2018-12-22T17:56:56.818Z,101186.23
2018-12-22T18:01:00.818Z,101187.97
2018-12-22T18:09:39.167Z,101192.55
2018-12-22T18:13:43.150Z,101197.04
2018-12-22T18:17:47.227Z,101193.30
2018-12-22T18:21:51.182Z,101207.64
2018-12-22T18:25:55.134Z,101215.86
2018-12-22T18:29:59.096Z,101206.15
2018-12-22T18:34:03.076Z,101213.98
2018-12-22T18:38:07.094Z,101213.77
2018-12-22T18:42:11.253Z,101219.56
2018-12-22T18:46:15.247Z,101217.88
2018-12-22T18:50:22.834Z,101229.73
2018-12-22T18:54:26.796Z,101224.91
2018-12-22T18:58:30.799Z,101229.33
2018-12-22T19:02:34.762Z,101230.20
2018-12-22T19:06:38.942Z,101230.37
2018-12-22T19:10:51.898Z,101246.42
2018-12-22T19:14:55.891Z,101236.95
2018-12-22T19:18:59.918Z,101245.17
2018-12-22T19:23:03.992Z,101245.64
2018-12-22T19:27:07.971Z,101242.20
2018-12-22T19:31:11.967Z,101248.26
2018-12-22T19:35:16.129Z,101243.33
2018-12-22T19:39:20.047Z,101248.33
2018-12-22T19:43:24.970Z,101252.91
2018-12-22T19:47:28.932Z,101251.92
2018-12-22T19:51:32.931Z,101253.56
2018-12-22T19:55:36.919Z,101260.87
2018-12-22T19:59:40.912Z,101269.02
2018-12-22T20:03:44.989Z,101261.34
2018-12-22T20:07:49.103Z,101272.44
2018-12-22T20:11:53.247Z,101264.02
2018-12-22T20:15:57.395Z,101273.03
2018-12-22T20:20:01.353Z,101280.84
2018-12-22T20:24:06.586Z,101291.59
2018-12-22T20:28:10.659Z,101296.56
2018-12-22T20:32:14.691Z,101300.05
2018-12-22T20:36:18.852Z,101300.50
2018-12-22T20:40:22.808Z,101302.02
2018-12-22T20:44:26.849Z,101304.13
2018-12-22T20:48:30.796Z,101304.03
2018-12-22T20:52:34.787Z,101304.19
2018-12-22T20:56:38.759Z,101307.75
2018-12-22T21:00:42.676Z,101312.88
2018-12-22T21:04:46.735Z,101319.66
2018-12-22T21:08:50.818Z,101319.91
2018-12-22T21:12:54.806Z,101321.62
2018-12-22T21:16:59.245Z,101328.92
2018-12-22T21:21:03.195Z,101337.66
2018-12-22T21:25:07.378Z,101336.01
2018-12-22T21:29:11.406Z,101334.43
2018-12-22T21:33:15.428Z,101341.16
2018-12-22T21:41:54.713Z,101356.58
2018-12-22T21:45:58.666Z,101363.22
2018-12-22T21:50:02.619Z,101359.89
2018-12-22T21:54:06.760Z,101371.73
2018-12-22T21:58:10.791Z,101373.39
2018-12-22T22:02:14.793Z,101387.82
2018-12-22T22:06:18.718Z,101383.42
2018-12-22T22:10:22.871Z,101393.13
2018-12-22T22:14:26.851Z,101405.41
2018-12-22T22:18:30.914Z,101406.61
2018-12-22T22:22:34.866Z,101412.50
2018-12-22T22:26:38.884Z,101421.80
2018-12-22T22:30:42.888Z,101426.80
2018-12-22T22:34:46.847Z,101436.71
2018-12-22T22:38:50.790Z,101428.17
2018-12-22T22:42:54.751Z,101424.41
2018-12-22T22:46:58.801Z,101419.09
2018-12-22T22:51:02.866Z,101415.27
2018-12-22T22:55:06.882Z,101413.20
2018-12-22T22:59:10.919Z,101419.69
2018-12-22T23:03:15.070Z,101422.98
2018-12-22T23:07:18.998Z,101423.52
2018-12-22T23:11:22.954Z,101410.33
2018-12-22T23:15:26.920Z,101424.28
2018-12-22T23:19:30.831Z,101417.20
2018-12-22T23:23:34.802Z,101404.02
2018-12-22T23:27:38.721Z,101414.00
2018-12-22T23:31:42.771Z,101419.14
2018-12-22T23:35:46.718Z,101402.64
2018-12-22T23:39:50.644Z,101415.22
2018-12-22T23:43:54.575Z,101425.93
2018-12-22T23:47:58.515Z,101428.23
2018-12-22T23:56:37.314Z,101421.67
